KBFD/BFD METAR and TAF weather

Enter ICAO airport designator
Station Type Date Time Source
KBFD METAR 2020/08/14 15:53 UTC NOAA

KBFD 141553Z AUTO 06007KT 10SM SCT044 26/13 A3013 RMK AO2 SLP188 T02560133


Station Type Date Time Source
KBFD Decoded METAR 2020/08/14 15:53 UTC NOAA

BRADFORD REGIONAL AIRPORT, PA, United States (KBFD) 41-48N 078-38W 647M
Aug 14, 2020 - 11:53 AM EDT / 2020.08.14 1553 UTC
Wind: from the ENE (060 degrees) at 8 MPH (7 KT):0
Visibility: 10 mile(s):0
Sky conditions: partly cloudy
Temperature: 78.1 F (25.6 C)
Dew Point: 55.9 F (13.3 C)
Relative Humidity: 46%
Pressure (altimeter): 30.13 in. Hg (1020 hPa)
ob: KBFD 141553Z AUTO 06007KT 10SM SCT044 26/13 A3013 RMK AO2 SLP188 T02560133
cycle: 16

Station Type Date Time Source
KBFD TAF 2020/08/14 16:42 UTC NOAA

TAF
AMD KBFD 141538Z 1416/1512 10005KT P6SM SKC
FM141800 07008KT P6SM SCT040 SCT220

Example: see airport list